createdAt,value
2023-03-21T00:01:07.355Z,9.55
2023-03-21T00:03:35.405Z,9.55
2023-03-21T00:06:08.284Z,9.45
2023-03-21T00:08:35.999Z,9.43
2023-03-21T00:11:05.903Z,9.49
2023-03-21T00:13:34.269Z,9.52
2023-03-21T00:16:12.275Z,9.46
2023-03-21T00:18:42.020Z,9.50
2023-03-21T00:21:39.644Z,9.46
2023-03-21T00:24:02.780Z,9.53
2023-03-21T00:26:30.367Z,9.58
2023-03-21T00:28:57.998Z,9.55
2023-03-21T00:31:26.360Z,9.27
2023-03-21T00:33:53.997Z,9.24
2023-03-21T00:36:25.984Z,9.13
2023-03-21T00:38:53.643Z,9.32
2023-03-21T00:41:35.133Z,9.22
2023-03-21T00:44:08.420Z,9.34
2023-03-21T00:46:45.436Z,9.32
2023-03-21T00:49:16.851Z,9.51
2023-03-21T00:51:45.665Z,9.51
2023-03-21T00:54:13.827Z,9.43
2023-03-21T00:56:41.322Z,9.30
2023-03-21T00:59:08.827Z,9.15
2023-03-21T01:01:36.337Z,9.02
2023-03-21T01:04:05.538Z,9.00
2023-03-21T01:06:33.522Z,8.85
2023-03-21T01:09:02.334Z,8.69
2023-03-21T01:11:29.828Z,8.70
2023-03-21T01:14:10.958Z,8.64
2023-03-21T01:16:45.891Z,8.59
2023-03-21T01:19:25.018Z,8.59
2023-03-21T01:21:53.970Z,8.54
2023-03-21T01:24:22.791Z,8.65
2023-03-21T01:26:50.366Z,8.67
2023-03-21T01:29:17.828Z,8.80
2023-03-21T01:31:45.426Z,8.69
2023-03-21T01:34:13.041Z,8.56
2023-03-21T01:36:40.720Z,8.60
2023-03-21T01:39:08.226Z,8.61
2023-03-21T01:41:43.725Z,8.64
2023-03-21T01:44:15.929Z,8.72
2023-03-21T01:46:53.919Z,8.69
2023-03-21T01:49:34.108Z,8.69
2023-03-21T01:52:11.569Z,8.58
2023-03-21T01:54:42.184Z,8.54
2023-03-21T01:57:14.910Z,8.57
2023-03-21T01:59:44.404Z,8.61
2023-03-21T02:02:14.908Z,8.44
2023-03-21T02:04:50.702Z,8.21
2023-03-21T02:07:23.100Z,8.39
2023-03-21T02:09:51.197Z,8.31
2023-03-21T02:12:20.277Z,8.22
2023-03-21T02:14:49.368Z,8.39
2023-03-21T02:17:20.423Z,8.33
2023-03-21T02:20:22.010Z,8.39
2023-03-21T02:23:15.013Z,8.01
2023-03-21T02:26:01.134Z,7.90
2023-03-21T02:28:32.548Z,7.76
2023-03-21T02:31:19.843Z,7.51
2023-03-21T02:34:13.526Z,7.17
2023-03-21T02:37:01.036Z,7.15
2023-03-21T02:39:30.511Z,7.23
2023-03-21T02:42:04.563Z,7.51
2023-03-21T02:44:37.469Z,7.47
2023-03-21T02:47:08.848Z,7.51
2023-03-21T02:49:42.760Z,7.52
2023-03-21T02:52:18.817Z,7.58
2023-03-21T02:54:53.420Z,7.52
2023-03-21T02:57:21.980Z,7.19
2023-03-21T02:59:54.545Z,7.06
2023-03-21T03:02:26.225Z,6.87
2023-03-21T03:04:53.926Z,6.94
2023-03-21T03:07:32.765Z,6.96
2023-03-21T03:10:08.865Z,6.73
2023-03-21T03:12:45.271Z,6.54
2023-03-21T03:15:18.772Z,6.43
2023-03-21T03:17:52.143Z,6.47
2023-03-21T03:20:27.005Z,6.47
2023-03-21T03:23:00.716Z,6.59
2023-03-21T03:25:41.963Z,6.67
2023-03-21T03:28:11.047Z,6.69
2023-03-21T03:30:46.559Z,6.81
2023-03-21T03:33:23.481Z,6.86
2023-03-21T03:36:04.439Z,6.50
2023-03-21T03:38:35.452Z,6.42
2023-03-21T03:41:05.195Z,6.43
2023-03-21T03:43:35.697Z,6.43
2023-03-21T03:46:10.408Z,6.32
2023-03-21T03:48:46.508Z,6.24
2023-03-21T03:51:18.088Z,6.25
2023-03-21T03:53:48.590Z,6.41
2023-03-21T03:56:16.231Z,6.45
2023-03-21T03:58:46.056Z,6.28
2023-03-21T04:01:14.185Z,6.20
2023-03-21T04:03:49.806Z,6.21
2023-03-21T04:06:19.670Z,6.25
2023-03-21T04:08:48.504Z,6.20
2023-03-21T04:11:16.390Z,6.16
2023-03-21T04:13:43.924Z,6.25
2023-03-21T04:16:12.828Z,6.37
2023-03-21T04:18:40.402Z,6.40
2023-03-21T04:21:09.655Z,6.40
2023-03-21T04:23:37.650Z,6.30
2023-03-21T04:26:07.643Z,6.39
2023-03-21T04:28:36.091Z,6.44
2023-03-21T04:31:13.535Z,6.54
2023-03-21T04:33:50.074Z,6.61
2023-03-21T04:36:26.363Z,6.54
2023-03-21T04:38:54.753Z,6.44
2023-03-21T04:41:23.522Z,6.41
2023-03-21T04:43:52.608Z,6.42
2023-03-21T04:46:20.215Z,6.48
2023-03-21T04:48:48.827Z,6.68
2023-03-21T04:51:16.624Z,6.75
2023-03-21T04:53:45.700Z,6.58
2023-03-21T04:56:13.386Z,6.49
2023-03-21T04:58:42.290Z,6.40
2023-03-21T05:01:09.970Z,6.39
2023-03-21T05:03:40.616Z,6.54
2023-03-21T05:06:09.386Z,6.47
2023-03-21T05:08:37.640Z,6.49
2023-03-21T05:11:05.870Z,6.49
2023-03-21T05:13:33.323Z,6.38
2023-03-21T05:16:02.127Z,6.26
2023-03-21T05:18:34.735Z,6.39
2023-03-21T05:21:04.108Z,6.31
2023-03-21T05:23:31.629Z,6.38
2023-03-21T05:25:59.074Z,6.36
2023-03-21T05:28:31.369Z,6.26
2023-03-21T05:30:58.835Z,6.29
2023-03-21T05:33:27.672Z,6.50
2023-03-21T05:35:55.268Z,6.55
2023-03-21T05:38:22.756Z,6.52
2023-03-21T05:40:51.125Z,6.64
2023-03-21T05:43:18.916Z,6.79
2023-03-21T05:45:48.170Z,6.84
2023-03-21T05:48:15.926Z,6.84
2023-03-21T05:50:44.793Z,6.93
2023-03-21T05:53:12.605Z,7.05
2023-03-21T05:55:40.258Z,7.12
2023-03-21T05:58:07.904Z,7.18
2023-03-21T06:00:35.404Z,7.32
2023-03-21T06:03:02.930Z,7.45
2023-03-21T06:05:30.698Z,7.41
2023-03-21T06:07:59.528Z,7.39
2023-03-21T06:10:27.294Z,7.45
2023-03-21T06:12:54.738Z,7.73
2023-03-21T06:15:22.300Z,7.78
2023-03-21T06:17:49.754Z,7.86
2023-03-21T06:20:17.519Z,7.75
2023-03-21T06:22:44.983Z,7.68
2023-03-21T06:25:13.964Z,7.80
2023-03-21T06:27:41.707Z,7.84
2023-03-21T06:30:10.241Z,8.03
2023-03-21T06:32:37.743Z,8.09
2023-03-21T06:35:05.718Z,8.23
2023-03-21T06:37:33.141Z,8.33
2023-03-21T06:40:00.596Z,8.45
2023-03-21T06:42:29.993Z,8.54
2023-03-21T06:44:57.500Z,8.52
2023-03-21T06:47:25.175Z,8.54
2023-03-21T06:49:52.711Z,8.65
2023-03-21T06:52:20.478Z,8.73
2023-03-21T06:54:47.922Z,8.83
2023-03-21T06:57:15.366Z,8.94
2023-03-21T06:59:44.262Z,9.07
2023-03-21T07:02:11.940Z,9.21
2023-03-21T07:04:39.451Z,9.35
2023-03-21T07:07:06.942Z,9.44
2023-03-21T07:09:34.407Z,9.52
2023-03-21T07:12:01.912Z,9.72
2023-03-21T07:14:31.908Z,9.60
2023-03-21T07:17:00.849Z,9.75
2023-03-21T07:19:28.315Z,9.87
2023-03-21T07:21:55.819Z,10.07
2023-03-21T07:24:23.275Z,10.25
2023-03-21T07:26:50.879Z,10.10
2023-03-21T07:29:21.382Z,10.15
2023-03-21T07:31:48.922Z,10.19
2023-03-21T07:34:18.827Z,10.08
2023-03-21T07:36:46.335Z,10.20
2023-03-21T07:39:13.842Z,10.35
2023-03-21T07:41:41.332Z,10.28
2023-03-21T07:44:08.807Z,10.30
2023-03-21T07:46:36.293Z,10.32
2023-03-21T07:49:05.929Z,10.25
2023-03-21T07:51:35.308Z,10.31
2023-03-21T07:54:02.837Z,10.33
2023-03-21T07:56:30.446Z,10.46
2023-03-21T07:58:59.072Z,10.63
2023-03-21T08:01:27.182Z,10.94
2023-03-21T08:03:54.713Z,11.13
2023-03-21T08:06:22.201Z,11.18
2023-03-21T08:08:51.592Z,11.09
2023-03-21T08:11:21.412Z,10.89
2023-03-21T08:13:49.475Z,10.97
2023-03-21T08:16:16.947Z,11.06
2023-03-21T08:18:44.595Z,11.17
2023-03-21T08:21:12.041Z,11.22
2023-03-21T08:23:39.705Z,11.50
2023-03-21T08:26:09.229Z,11.30
2023-03-21T08:28:39.229Z,11.39
2023-03-21T08:31:08.882Z,11.48
2023-03-21T08:33:37.121Z,11.75
2023-03-21T08:36:05.705Z,11.94
2023-03-21T08:38:33.466Z,11.91
2023-03-21T08:41:01.123Z,12.12
2023-03-21T08:43:30.463Z,12.17
2023-03-21T08:45:58.019Z,12.00
2023-03-21T08:48:25.614Z,11.99
2023-03-21T08:50:53.084Z,11.97
2023-03-21T08:53:20.536Z,12.16
2023-03-21T08:55:48.008Z,12.09
2023-03-21T08:58:15.562Z,12.14
2023-03-21T09:00:44.441Z,12.18
2023-03-21T09:03:12.104Z,12.61
2023-03-21T09:05:39.977Z,12.48
2023-03-21T09:08:07.698Z,12.28
2023-03-21T09:10:35.265Z,11.93
2023-03-21T09:13:02.704Z,12.37
2023-03-21T09:15:30.220Z,12.71
2023-03-21T09:18:12.916Z,12.38
2023-03-21T09:20:40.850Z,12.28
2023-03-21T09:23:08.453Z,12.14
2023-03-21T09:25:36.743Z,12.25
2023-03-21T09:28:05.109Z,12.17
2023-03-21T09:30:33.893Z,12.23
2023-03-21T09:33:06.434Z,12.31
2023-03-21T09:35:34.739Z,12.30
2023-03-21T09:38:02.924Z,12.21
2023-03-21T09:40:47.670Z,12.38
2023-03-21T09:43:24.266Z,12.32
2023-03-21T09:45:54.832Z,12.02
2023-03-21T09:48:33.533Z,12.22
2023-03-21T09:51:02.947Z,12.56
2023-03-21T09:53:34.201Z,12.80
2023-03-21T09:56:03.550Z,12.81
2023-03-21T09:58:33.555Z,13.13
2023-03-21T10:01:05.294Z,12.70
2023-03-21T10:03:36.187Z,12.91
2023-03-21T10:06:08.159Z,12.97
2023-03-21T10:08:38.613Z,13.05
2023-03-21T10:11:15.251Z,13.01
2023-03-21T10:13:45.780Z,13.00
2023-03-21T10:16:16.218Z,13.30
2023-03-21T10:18:46.738Z,13.40
2023-03-21T10:21:47.585Z,13.21
2023-03-21T10:24:13.094Z,13.41
2023-03-21T10:26:40.908Z,13.32
2023-03-21T10:29:08.993Z,13.38
2023-03-21T10:31:36.571Z,13.17
2023-03-21T10:34:13.161Z,13.19
2023-03-21T10:36:40.736Z,13.04
2023-03-21T10:39:14.018Z,12.84
2023-03-21T10:41:41.569Z,12.78
2023-03-21T10:44:11.497Z,12.82
2023-03-21T10:46:39.333Z,12.67
2023-03-21T10:49:09.525Z,11.91
2023-03-21T10:51:37.933Z,11.98
2023-03-21T10:54:07.516Z,11.71
2023-03-21T10:56:38.734Z,11.77
2023-03-21T10:59:08.086Z,11.66
2023-03-21T11:01:37.895Z,11.66
2023-03-21T11:04:11.173Z,11.45
2023-03-21T11:06:40.570Z,11.34
2023-03-21T11:09:13.144Z,11.34
2023-03-21T11:11:42.454Z,11.19
2023-03-21T11:14:26.087Z,11.21
2023-03-21T11:16:53.703Z,11.38
2023-03-21T11:19:30.677Z,11.48
2023-03-21T11:21:58.910Z,11.57
2023-03-21T11:24:30.154Z,11.49
2023-03-21T11:26:58.739Z,11.28
2023-03-21T11:29:31.849Z,11.45
2023-03-21T11:32:02.076Z,11.79
2023-03-21T11:34:34.416Z,11.58
2023-03-21T11:37:03.926Z,11.55
2023-03-21T11:39:34.366Z,11.54
2023-03-21T11:42:01.830Z,11.50
2023-03-21T11:44:32.221Z,11.31
2023-03-21T11:46:59.857Z,11.43
2023-03-21T11:49:27.868Z,11.75
2023-03-21T11:52:04.708Z,11.31
2023-03-21T11:54:38.119Z,11.25
2023-03-21T11:57:09.698Z,11.32
2023-03-21T11:59:44.325Z,11.06
2023-03-21T12:02:41.501Z,11.20
2023-03-21T12:05:17.150Z,11.24
2023-03-21T12:07:52.917Z,11.62
2023-03-21T12:10:38.086Z,11.53
2023-03-21T12:13:15.866Z,11.37
2023-03-21T12:15:52.212Z,11.40
2023-03-21T12:18:43.854Z,11.41
2023-03-21T12:21:15.919Z,11.43
2023-03-21T12:23:49.657Z,11.56
2023-03-21T12:26:24.161Z,11.55
2023-03-21T12:29:06.125Z,11.61
2023-03-21T12:31:45.511Z,11.51
2023-03-21T12:34:24.440Z,11.56
2023-03-21T12:37:02.134Z,11.73
2023-03-21T12:39:32.654Z,12.00
2023-03-21T12:42:29.078Z,11.72
2023-03-21T12:45:00.789Z,11.80
2023-03-21T12:47:31.756Z,11.87
2023-03-21T12:50:01.715Z,11.77
2023-03-21T12:52:32.823Z,11.72
2023-03-21T12:55:03.551Z,11.73
2023-03-21T12:57:35.629Z,11.64
2023-03-21T13:00:10.584Z,11.53
2023-03-21T13:02:40.545Z,11.59
2023-03-21T13:05:16.796Z,11.59
2023-03-21T13:07:46.941Z,11.73
2023-03-21T13:10:20.741Z,11.66
2023-03-21T13:13:09.726Z,11.41
2023-03-21T13:15:50.761Z,11.29
2023-03-21T13:18:27.010Z,11.40
2023-03-21T13:20:56.238Z,11.32
2023-03-21T13:23:24.722Z,11.38
2023-03-21T13:25:55.395Z,11.11
2023-03-21T13:28:27.162Z,11.21
2023-03-21T13:30:54.859Z,11.35
2023-03-21T13:33:25.838Z,11.29
2023-03-21T13:36:05.160Z,11.23
2023-03-21T13:38:33.657Z,11.22
2023-03-21T13:41:07.021Z,11.12
2023-03-21T13:43:44.323Z,11.29
2023-03-21T13:46:13.182Z,11.17
2023-03-21T13:48:57.765Z,11.13
2023-03-21T13:51:43.050Z,11.10
2023-03-21T13:54:24.232Z,11.17
2023-03-21T13:56:55.655Z,11.23
2023-03-21T13:59:38.734Z,11.23
2023-03-21T14:02:23.609Z,11.28
2023-03-21T14:05:05.249Z,11.35
2023-03-21T14:07:34.564Z,11.07
2023-03-21T14:10:05.027Z,10.92
2023-03-21T14:12:39.416Z,10.73
2023-03-21T14:15:16.207Z,10.78
2023-03-21T14:17:51.762Z,10.70
2023-03-21T14:20:21.952Z,10.64
2023-03-21T14:22:49.768Z,10.69
2023-03-21T14:25:18.761Z,10.76
2023-03-21T14:27:49.742Z,10.96
2023-03-21T14:30:23.053Z,11.07
2023-03-21T14:32:50.646Z,10.89
2023-03-21T14:35:18.405Z,10.51
2023-03-21T14:37:47.071Z,10.50
2023-03-21T14:40:23.402Z,10.73
2023-03-21T14:42:53.046Z,10.84
2023-03-21T14:45:22.846Z,10.88
2023-03-21T14:47:59.280Z,10.98
2023-03-21T14:50:33.248Z,11.18
2023-03-21T14:53:01.105Z,11.28
2023-03-21T14:55:28.802Z,11.21
2023-03-21T14:57:57.832Z,11.11
2023-03-21T15:00:27.930Z,11.02
2023-03-21T15:02:56.135Z,11.08
2023-03-21T15:05:26.958Z,11.19
2023-03-21T15:07:56.658Z,11.30
2023-03-21T15:10:24.914Z,11.48
2023-03-21T15:12:53.612Z,11.45
2023-03-21T15:15:25.966Z,11.65
2023-03-21T15:17:55.839Z,11.72
2023-03-21T15:20:26.147Z,11.47
2023-03-21T15:22:55.809Z,11.11
2023-03-21T15:25:26.646Z,11.16
2023-03-21T15:27:55.534Z,11.00
2023-03-21T15:30:26.577Z,11.19
2023-03-21T15:32:54.482Z,11.52
2023-03-21T15:35:25.913Z,11.57
2023-03-21T15:37:56.611Z,11.55
2023-03-21T15:40:26.381Z,11.42
2023-03-21T15:43:05.757Z,11.48
2023-03-21T15:45:34.890Z,11.58
2023-03-21T15:48:04.311Z,11.56
2023-03-21T15:50:36.583Z,11.36
2023-03-21T15:53:07.658Z,11.56
2023-03-21T15:55:42.507Z,11.17
2023-03-21T15:58:16.959Z,11.15
2023-03-21T16:00:52.182Z,11.17
2023-03-21T16:03:24.477Z,11.08
2023-03-21T16:06:07.473Z,10.97
2023-03-21T16:08:36.858Z,11.13
2023-03-21T16:11:09.577Z,11.14
2023-03-21T16:13:37.125Z,10.89
2023-03-21T16:16:06.630Z,10.87
2023-03-21T16:18:34.384Z,10.93
2023-03-21T16:21:01.932Z,11.09
2023-03-21T16:23:29.820Z,10.95
2023-03-21T16:25:58.872Z,10.97
2023-03-21T16:28:26.362Z,11.09
2023-03-21T16:30:54.483Z,11.22
2023-03-21T16:33:25.357Z,11.27
2023-03-21T16:35:53.993Z,11.21
2023-03-21T16:38:21.479Z,10.99
2023-03-21T16:40:49.007Z,10.98
2023-03-21T16:43:16.441Z,11.09
2023-03-21T16:45:43.952Z,10.80
2023-03-21T16:48:16.269Z,10.74
2023-03-21T16:50:48.505Z,10.76
2023-03-21T16:53:17.011Z,10.67
2023-03-21T16:55:44.472Z,10.68
2023-03-21T16:58:15.647Z,10.68
2023-03-21T17:00:43.390Z,10.76
2023-03-21T17:03:15.305Z,10.84
2023-03-21T17:05:42.952Z,10.78
2023-03-21T17:08:16.029Z,10.94
2023-03-21T17:10:43.546Z,10.99
2023-03-21T17:13:11.840Z,11.01
2023-03-21T17:15:41.368Z,11.05
2023-03-21T17:18:08.839Z,10.85
2023-03-21T17:20:38.204Z,10.82
2023-03-21T17:23:05.903Z,10.95
2023-03-21T17:25:35.197Z,11.07
2023-03-21T17:28:02.847Z,11.09
2023-03-21T17:30:31.956Z,11.01
2023-03-21T17:32:59.599Z,10.94
2023-03-21T17:35:27.718Z,11.02
2023-03-21T17:37:58.727Z,11.00
2023-03-21T17:40:28.315Z,10.81
2023-03-21T17:42:57.903Z,10.81
2023-03-21T17:45:25.838Z,10.86
2023-03-21T17:47:54.746Z,10.46
2023-03-21T17:50:24.372Z,10.47
2023-03-21T17:52:52.153Z,10.38
2023-03-21T17:55:21.271Z,10.28
2023-03-21T17:57:49.669Z,10.35
2023-03-21T18:00:21.144Z,10.39
2023-03-21T18:02:48.621Z,10.53
2023-03-21T18:05:16.749Z,10.50
2023-03-21T18:10:32.368Z,10.39
2023-03-21T18:13:00.190Z,10.42
2023-03-21T18:15:30.508Z,10.39
2023-03-21T18:17:58.533Z,10.31
2023-03-21T18:20:44.605Z,10.41
2023-03-21T18:23:14.825Z,10.31
2023-03-21T18:25:42.604Z,10.29
2023-03-21T18:28:12.349Z,10.23
2023-03-21T18:31:04.807Z,10.27
2023-03-21T18:33:29.911Z,10.32
2023-03-21T18:35:59.640Z,10.25
2023-03-21T18:38:27.679Z,10.25
2023-03-21T18:40:55.707Z,10.12
2023-03-21T18:46:12.642Z,10.02
2023-03-21T18:48:40.268Z,9.87
2023-03-21T18:51:09.511Z,9.87
2023-03-21T18:53:38.091Z,9.84
2023-03-21T18:56:10.158Z,9.85
2023-03-21T18:58:38.474Z,9.88
2023-03-21T19:01:06.299Z,10.16
2023-03-21T19:03:37.309Z,10.18
2023-03-21T19:06:06.400Z,10.03
2023-03-21T19:08:34.832Z,9.98
2023-03-21T19:11:06.007Z,9.94
2023-03-21T19:13:34.772Z,10.06
2023-03-21T19:16:03.144Z,10.09
2023-03-21T19:18:49.949Z,9.99
2023-03-21T19:21:21.537Z,9.89
2023-03-21T19:26:36.491Z,9.71
2023-03-21T19:29:03.962Z,9.61
2023-03-21T19:31:31.743Z,9.64
2023-03-21T19:33:59.792Z,9.73
2023-03-21T19:36:28.747Z,9.68
2023-03-21T19:38:56.301Z,9.67
2023-03-21T19:41:23.892Z,9.60
2023-03-21T19:43:55.142Z,9.55
2023-03-21T19:46:24.990Z,9.38
2023-03-21T19:48:56.109Z,9.16
2023-03-21T19:51:28.753Z,9.08
2023-03-21T19:53:58.863Z,9.13
2023-03-21T19:56:27.805Z,9.29
2023-03-21T19:58:55.956Z,9.27
2023-03-21T20:01:25.040Z,9.09
2023-03-21T20:03:52.914Z,9.17
2023-03-21T20:06:22.137Z,9.31
2023-03-21T20:09:27.298Z,9.42
2023-03-21T20:11:38.816Z,9.15
2023-03-21T20:14:06.931Z,9.06
2023-03-21T20:16:36.474Z,9.15
2023-03-21T20:19:05.853Z,9.21
2023-03-21T20:21:44.409Z,9.25
2023-03-21T20:24:16.202Z,9.28
2023-03-21T20:26:46.344Z,9.24
2023-03-21T20:32:01.730Z,9.23
2023-03-21T20:34:30.560Z,9.17
2023-03-21T20:36:58.542Z,9.00
2023-03-21T20:39:29.472Z,8.82
2023-03-21T20:41:59.569Z,8.92
2023-03-21T20:44:48.461Z,9.08
2023-03-21T20:47:16.068Z,9.04
2023-03-21T20:49:44.131Z,9.10
2023-03-21T20:54:59.553Z,8.97
2023-03-21T20:57:28.666Z,9.06
2023-03-21T20:59:56.145Z,9.03
2023-03-21T21:02:24.605Z,8.94
2023-03-21T21:05:23.745Z,8.73
2023-03-21T21:07:41.719Z,8.52
2023-03-21T21:10:10.881Z,8.51
2023-03-21T21:12:42.041Z,8.33
2023-03-21T21:15:11.101Z,8.29
2023-03-21T21:18:05.570Z,8.38
2023-03-21T21:20:27.504Z,8.23
2023-03-21T21:23:00.496Z,8.31
2023-03-21T21:25:28.816Z,8.18
2023-03-21T21:27:57.647Z,8.13
2023-03-21T21:30:25.452Z,7.94
2023-03-21T21:32:53.865Z,7.94
2023-03-21T21:35:22.245Z,7.88
2023-03-21T21:37:51.036Z,8.21
2023-03-21T21:40:20.584Z,8.12
2023-03-21T21:42:48.256Z,8.30
2023-03-21T21:45:18.277Z,8.12
2023-03-21T21:47:46.451Z,8.03
2023-03-21T21:50:14.198Z,8.02
2023-03-21T21:52:43.923Z,7.99
2023-03-21T21:55:13.031Z,8.10
2023-03-21T21:57:41.024Z,7.94
2023-03-21T22:00:13.030Z,7.91
2023-03-21T22:02:42.036Z,7.81
2023-03-21T22:05:10.480Z,7.75
2023-03-21T22:07:39.022Z,7.74
2023-03-21T22:10:07.940Z,7.71
2023-03-21T22:12:35.471Z,7.71
2023-03-21T22:15:03.929Z,7.65
2023-03-21T22:17:31.635Z,7.57
2023-03-21T22:20:06.016Z,7.67
2023-03-21T22:22:34.713Z,7.75
2023-03-21T22:25:02.420Z,7.60
2023-03-21T22:27:29.899Z,7.62
2023-03-21T22:29:57.585Z,7.70
2023-03-21T22:32:25.584Z,7.76
2023-03-21T22:34:53.525Z,7.75
2023-03-21T22:37:22.340Z,7.61
2023-03-21T22:39:49.802Z,7.56
2023-03-21T22:42:17.283Z,7.59
2023-03-21T22:44:44.781Z,7.66
2023-03-21T22:47:12.438Z,7.53
2023-03-21T22:49:42.328Z,7.42
2023-03-21T22:52:10.684Z,7.51
2023-03-21T22:54:39.916Z,7.47
2023-03-21T22:57:08.473Z,7.49
2023-03-21T22:59:36.010Z,7.37
2023-03-21T23:02:03.561Z,7.39
2023-03-21T23:04:31.290Z,7.32
2023-03-21T23:06:59.050Z,7.21
2023-03-21T23:09:27.222Z,7.21
2023-03-21T23:11:56.072Z,7.25
2023-03-21T23:14:23.727Z,7.16
2023-03-21T23:16:52.585Z,7.12
2023-03-21T23:19:20.798Z,7.19
2023-03-21T23:21:48.981Z,7.09
2023-03-21T23:24:16.663Z,7.00
2023-03-21T23:26:44.198Z,7.05
2023-03-21T23:29:13.909Z,7.03
2023-03-21T23:31:41.478Z,6.98
2023-03-21T23:34:09.005Z,6.95
2023-03-21T23:36:36.599Z,7.14
2023-03-21T23:39:04.378Z,7.09
2023-03-21T23:41:31.941Z,7.06
2023-03-21T23:43:59.433Z,7.06
2023-03-21T23:46:28.359Z,7.11
2023-03-21T23:48:55.887Z,7.19
2023-03-21T23:51:23.464Z,7.32
2023-03-21T23:53:51.402Z,7.31
2023-03-21T23:56:20.988Z,7.40
2023-03-21T23:58:49.691Z,7.41
